Blue Hill Meteorological Observatory

42° 12' 44"N, 71° 06' 53"W, Elevation 635 ft.
Eastern Time

Hourly observations for the last 72 hours

Date Time Temperature (°F) Humi-
dity

(%)
Wind
(mph)
Pressure Rain (in) Sun
(W/m2)
ET
(in)
Air Dew 6 Hour 1 Hr 3 Hr 6 Hr Day
Alt
(in)
Sea
Level

(mb)
Max Min
3 07:00 70.7 67.3 73.2 70.2 89 NE 13 G 21 29.84 1010.5 0.00 403 0.009
3 06:00 72.4 68.6 88 NE 14 G 22 29.81 1009.5 0.00 160 0.005
3 05:00 71.9 68.5 89 N 10 G 12 29.79 1008.8 0.00 33 0.004
3 04:00 70.8 67.7 90 N 12 G 15 29.77 1008.2 0.00 0 0.003
3 03:00 71.0 67.9 90 NNW 12 G 18 29.76 1007.9 0.00 0 0.002
3 02:00 71.7 68.3 89 NW 12 G 14 29.76 1007.8 0.00 0 0.001
3 01:00 71.6 68.2 78.5 71.2 89 NW 11 G 14 29.75 1007.6 0.00 0 0.000
3 00:00 71.3 68.2 90 WNW 10 G 12 29.76 1007.9 0.00 0 0.210
2 23:00 73.7 68.6 84 W 10 G 14 29.76 1007.8 0.00 0 0.208
2 22:00 74.0 68.2 82 W 15 G 20 29.75 1007.6 0.00 0 0.205
2 21:00 74.1 66.1 76 W 10 G 13 29.75 1007.7 0.00 0 0.202
2 20:00 75.9 71.1 85 WSW 10 G 13 29.77 1008.3 0.00 0 0.200
2 19:00 78.5 71.8 86.4 78.5 80 SSW 10 G 12 29.75 1007.4 0.00 11 0.197
2 18:00 83.4 72.6 70 SSW 7 G 13 29.73 1006.9 0.00 51 0.189
2 17:00 85.3 71.3 63 WSW 7 G 10 29.73 1006.6 0.00 308 0.177
2 16:00 85.8 71.3 62 W 9 G 11 29.74 1007.3 0.00 513 0.162
2 15:00 84.4 70.0 62 W 10 G 14 29.75 1007.6 0.00 134 0.143
2 14:00 84.3 70.8 64 WSW 5 G 8 29.77 1008.2 0.00 795 0.121
2 13:00 82.7 71.1 83.3 65.9 68 W 5 G 11 29.78 1008.6 0.00 183 0.102
2 12:00 81.8 71.1 70 W 3 G 10 29.79 1008.8 0.00 932 0.077
2 11:00 79.6 69.8 72 W 4 G 9 29.81 1009.3 0.00 367 0.056
2 10:00 77.4 68.1 73 WSW 4 G 7 29.80 1009.2 0.00 828 0.036
2 09:00 73.9 69.1 85 WSW 3 G 7 29.81 1009.7 0.00 708 0.020
2 08:00 69.0 68.1 97 SSW 4 G 5 29.82 1009.9 0.00 568 0.009
2 07:00 66.0 65.4 66.2 61.7 98 WSW 2 G 4 29.83 1010.3 0.00 397 0.002
2 06:00 63.0 62.4 98 WNW 4 G 6 29.84 1010.4 0.00 213 0.000
2 05:00 61.8 61.2 98 WNW 8 G 9 29.83 1010.3 0.00 19 0.000
2 04:00 62.6 62.0 98 W 4 G 6 29.82 1009.8 0.00 0 0.000
2 03:00 63.4 62.8 98 W 4 G 7 29.82 1009.8 0.00 0 0.000
2 02:00 63.6 63.0 98 W 6 G 8 29.82 1009.9 0.00 0 0.000
2 01:00 64.5 63.9 66.2 64.2 98 SSW 2 G 4 29.82 1009.9 0.00 0 0.000
2 00:00 64.8 64.2 98 WNW 4 G 8 29.83 1010.3 0.00 0 0.098
1 23:00 64.6 63.7 97 W 8 G 10 29.85 1010.9 0.00 0 0.098
1 22:00 65.0 64.1 97 SSW 5 G 7 29.87 1011.4 0.00 0 0.098
1 21:00 65.4 64.2 96 SSW 4 G 6 29.87 1011.4 0.00 0 0.098
1 20:00 66.0 64.5 95 SSW 6 G 9 29.86 1011.2 0.00 0 0.098
1 19:00 66.2 64.4 75.4 66.2 94 S 6 G 8 29.85 1010.7 0.00 11 0.097
1 18:00 67.4 65.0 92 SSW 8 G 12 29.85 1011.0 0.00 63 0.094
1 17:00 67.7 65.3 92 SSW 4 G 6 29.84 1010.4 0.00 134 0.091
1 16:00 68.0 66.2 94 SE 8 G 9 29.84 1010.7 0.00 81 0.089
1 15:00 68.7 65.7 90 E 7 G 11 29.85 1010.9 0.00 46 0.086
1 14:00 71.7 67.3 86 E 5 G 11 29.86 1011.1 0.00 148 0.078
1 13:00 75.4 68.8 76.1 65.5 80 ENE 10 G 15 29.86 1011.1 0.00 357 0.054
1 12:00 73.4 68.6 85 E 8 G 11 29.87 1011.5 0.00 274 0.041
1 11:00 72.2 68.1 87 WNW 4 G 7 29.88 1011.8 0.00 306 0.032
1 10:00 71.3 67.6 88 W 5 G 7 29.89 1012.1 0.00 965 0.023
1 09:00 70.9 66.5 86 WSW 4 G 6 29.91 1013.0 0.00 123 0.014
1 08:00 68.2 67.0 96 WNW 2 G 4 29.90 1012.6 0.00 650 0.005
1 07:00 65.5 64.9 65.5 62.9 98 W 6 G 8 29.89 1012.2 0.00 457 0.001
1 06:00 64.3 63.7 98 SW 2 G 4 29.89 1012.2 0.00 95 0.000
1 05:00 63.4 62.8 98 SW 3 G 4 29.89 1012.2 0.00 21 0.000
1 04:00 63.0 62.4 98 WSW 3 G 4 29.88 1011.8 0.00 0 0.000
1 03:00 62.9 62.3 98 SW 2 G 3 29.88 1011.7 0.00 0 0.000
1 02:00 63.0 62.1 97 E 0 G 2 29.88 1011.8 0.00 0 0.000
1 01:00 63.0 62.1 63.1 61.7 97 NE 0 G 3 29.89 1012.3 0.00 0 0.000
1 00:00 62.6 62.0 98 Calm 29.90 1012.5 0.01 0 0.057
30 23:00 62.1 61.2 97 NNW 4 G 5 29.91 1012.7 0.01 0 0.057
30 22:00 62.2 61.3 97 SE 3 G 4 29.92 1013.1 0.01 0 0.057
30 21:00 62.5 61.6 97 E 4 G 4 29.92 1013.2 0.01 0 0.057
30 20:00 62.2 61.0 96 E 6 G 10 29.91 1012.9 0.01 0 0.057
30 19:00 62.8 61.3 68.3 62.7 95 ENE 9 G 12 29.91 1012.8 0.01 0 0.056
30 18:00 64.3 62.5 94 ENE 6 G 11 29.91 1013.0 0.01 63 0.054
30 17:00 68.0 64.6 89 ENE 5 G 10 29.91 1012.8 0.01 132 0.046
30 16:00 67.4 64.7 91 ENE 8 G 11 29.91 1012.9 0.01 675 0.039
30 15:00 66.8 64.7 93 ENE 5 G 8 29.91 1012.9 0.01 192 0.032
30 14:00 65.1 63.6 95 NE 3 G 10 29.92 1013.1 0.01 236 0.026
30 13:00 66.0 64.5 66.3 62.9 95 ENE 8 G 9 29.92 1013.4 0.01 200 0.019
30 12:00 63.6 62.7 97 ENE 6 G 12 29.93 1013.7 0.01 167 0.014
30 11:00 63.6 63.0 98 ENE 4 G 11 29.94 1014.0 0.01 156 0.011
30 10:00 63.2 62.6 98 ENE 4 G 9 29.94 1013.8 0.01 65 0.009
30 09:00 63.6 63.0 98 ENE 5 G 9 29.93 1013.6 0.01 76 0.006
30 08:00 63.3 62.7 98 E 4 G 8 29.92 1013.2 0.01 102 0.003

Data generated by WxSolution Version 1.9.1.8, Build 2020.02.16.